createdAt,value
2018-02-13T00:49:22.525Z,0.30
2018-02-13T00:51:50.054Z,0.31
2018-02-13T00:54:17.613Z,0.28
2018-02-13T00:56:45.170Z,0.17
2018-02-13T00:59:12.690Z,0.11
2018-02-13T01:01:40.233Z,0.15
2018-02-13T01:04:07.748Z,0.11
2018-02-13T01:06:35.717Z,0.30
2018-02-13T01:09:03.237Z,0.32
2018-02-13T01:11:30.743Z,0.29
2018-02-13T01:13:58.286Z,0.56
2018-02-13T01:16:25.802Z,0.53
2018-02-13T01:18:53.491Z,0.40
2018-02-13T01:21:21.002Z,0.47
2018-02-13T01:23:48.517Z,0.27
2018-02-13T01:26:16.062Z,0.36
2018-02-13T01:28:43.565Z,0.46
2018-02-13T01:31:11.117Z,0.42
2018-02-13T01:33:38.625Z,0.21
2018-02-13T01:36:06.138Z,0.34
2018-02-13T01:38:33.682Z,0.52
2018-02-13T01:41:01.195Z,0.55
2018-02-13T01:43:28.943Z,0.24
2018-02-13T01:45:56.443Z,0.35
2018-02-13T01:48:23.957Z,0.48
2018-02-13T01:50:51.500Z,0.53
2018-02-13T01:53:19.019Z,0.69
2018-02-13T01:55:46.567Z,0.60
2018-02-13T01:58:14.077Z,0.66
2018-02-13T02:00:41.589Z,0.54
2018-02-13T02:03:09.127Z,0.70
2018-02-13T02:05:37.125Z,0.33
2018-02-13T02:08:04.783Z,0.45
2018-02-13T02:10:32.298Z,0.57
2018-02-13T02:12:59.821Z,0.56
2018-02-13T02:15:27.398Z,0.42
2018-02-13T02:17:54.914Z,0.43
2018-02-13T02:20:22.577Z,0.42
2018-02-13T02:22:50.090Z,0.42
2018-02-13T02:25:17.598Z,0.26
2018-02-13T02:27:45.129Z,0.34
2018-02-13T02:30:12.642Z,0.22
2018-02-13T02:32:40.373Z,0.26
2018-02-13T02:35:07.882Z,0.06
2018-02-13T02:37:35.402Z,0.35
2018-02-13T02:40:02.941Z,0.40
2018-02-13T02:42:42.188Z,0.09
2018-02-13T02:45:09.816Z,-0.08
2018-02-13T02:47:37.337Z,0.10
2018-02-13T02:50:04.869Z,0.18
2018-02-13T02:52:32.398Z,0.08
2018-02-13T02:54:59.915Z,-0.06
2018-02-13T02:57:27.744Z,-0.19
2018-02-13T02:59:55.255Z,0.00
2018-02-13T03:02:22.766Z,-0.09
2018-02-13T03:04:50.306Z,-0.03
2018-02-13T03:07:17.832Z,-0.03
2018-02-13T03:09:45.398Z,0.22
2018-02-13T03:12:12.913Z,-0.22
2018-02-13T03:14:40.431Z,0.07
2018-02-13T03:17:07.995Z,0.12
2018-02-13T03:19:35.506Z,0.14
2018-02-13T03:22:06.167Z,-0.15
2018-02-13T03:24:34.063Z,0.07
2018-02-13T03:27:02.170Z,0.19
2018-02-13T03:29:30.048Z,-0.16
2018-02-13T03:31:57.561Z,0.04
2018-02-13T03:34:25.575Z,-0.14
2018-02-13T03:36:53.094Z,-0.12
2018-02-13T03:39:21.721Z,-0.30
2018-02-13T03:41:49.269Z,-0.36
2018-02-13T03:44:16.936Z,-0.29
2018-02-13T03:46:44.814Z,-0.25
2018-02-13T03:49:13.623Z,-0.06
2018-02-13T03:51:41.452Z,-0.04
2018-02-13T03:54:09.384Z,-0.16
2018-02-13T03:56:36.895Z,-0.11
2018-02-13T03:59:04.605Z,-0.25
2018-02-13T04:01:32.365Z,-0.18
2018-02-13T04:03:59.890Z,-0.22
2018-02-13T04:06:27.430Z,-0.35
2018-02-13T04:08:54.953Z,-0.29
2018-02-13T04:11:22.814Z,-0.29
2018-02-13T04:13:50.321Z,-0.33
2018-02-13T04:16:17.833Z,-0.23
2018-02-13T04:18:45.386Z,-0.22
2018-02-13T04:21:12.962Z,-0.44
2018-02-13T04:23:40.714Z,-0.51
2018-02-13T04:26:08.260Z,-0.37
2018-02-13T04:28:35.831Z,-0.25
2018-02-13T04:31:03.393Z,-0.51
2018-02-13T04:33:30.921Z,-0.41
2018-02-13T04:35:58.485Z,-0.70
2018-02-13T04:38:26.006Z,-0.63
2018-02-13T04:40:53.524Z,-0.57
2018-02-13T04:43:21.074Z,-0.61
2018-02-13T04:45:48.662Z,-0.63
2018-02-13T04:48:16.238Z,-0.76
2018-02-13T04:50:43.750Z,-0.56
2018-02-13T04:53:11.266Z,-0.63
2018-02-13T04:55:38.813Z,-0.59
2018-02-13T04:58:06.325Z,-0.56
2018-02-13T05:00:34.044Z,-0.62
2018-02-13T05:03:01.542Z,-0.95
2018-02-13T05:05:29.062Z,-0.59
2018-02-13T05:07:56.617Z,-0.57
2018-02-13T05:10:24.134Z,-0.60
2018-02-13T05:12:51.858Z,-0.68
2018-02-13T05:15:19.357Z,-0.72
2018-02-13T05:17:46.875Z,-0.56
2018-02-13T05:20:14.425Z,-0.58
2018-02-13T05:22:41.956Z,-0.73
2018-02-13T05:25:13.685Z,-0.53
2018-02-13T05:27:41.233Z,-0.43
2018-02-13T05:30:08.755Z,-0.35
2018-02-13T05:32:36.306Z,-0.32
2018-02-13T05:35:05.609Z,-0.52
2018-02-13T05:37:33.722Z,-0.54
2018-02-13T05:40:01.698Z,-0.57
2018-02-13T05:42:29.404Z,-0.36
2018-02-13T05:44:57.162Z,-0.17
2018-02-13T05:47:24.819Z,-0.20
2018-02-13T05:49:52.678Z,-0.11
2018-02-13T05:52:20.237Z,-0.21
2018-02-13T05:54:47.806Z,-0.11
2018-02-13T05:57:15.357Z,-0.12
2018-02-13T05:59:42.886Z,-0.25
2018-02-13T06:02:10.429Z,-0.01
2018-02-13T06:04:37.964Z,-0.03
2018-02-13T06:07:05.477Z,0.05
2018-02-13T06:09:33.034Z,-0.05
2018-02-13T06:12:00.559Z,-0.16
2018-02-13T06:14:28.259Z,-0.29
2018-02-13T06:16:55.774Z,-0.04
2018-02-13T06:19:23.286Z,-0.13
2018-02-13T06:21:50.846Z,-0.06
2018-02-13T06:24:18.356Z,-0.15
2018-02-13T06:26:46.022Z,-0.34
2018-02-13T06:29:13.546Z,-0.25
2018-02-13T06:31:41.065Z,-0.39
2018-02-13T06:34:08.614Z,-0.16
2018-02-13T06:36:36.126Z,-0.26
2018-02-13T06:39:04.081Z,-0.43
2018-02-13T06:41:31.598Z,-0.37
2018-02-13T06:43:59.128Z,-0.35
2018-02-13T06:46:26.674Z,-0.12
2018-02-13T06:48:54.189Z,-0.24
2018-02-13T06:51:21.739Z,-0.29
2018-02-13T06:53:49.263Z,-0.50
2018-02-13T06:56:16.778Z,-0.10
2018-02-13T06:58:44.413Z,-0.18
2018-02-13T07:01:11.927Z,-0.12
2018-02-13T07:03:39.845Z,0.04
2018-02-13T07:06:07.379Z,-0.02
2018-02-13T07:08:34.906Z,-0.01
2018-02-13T07:11:02.463Z,-0.32
2018-02-13T07:13:29.987Z,-0.29
2018-02-13T07:15:57.849Z,-0.11
2018-02-13T07:18:25.402Z,-0.10
2018-02-13T07:20:52.926Z,0.02
2018-02-13T07:23:20.474Z,-0.08
2018-02-13T07:25:47.994Z,-0.03
2018-02-13T07:28:15.547Z,0.21
2018-02-13T07:30:43.078Z,0.23
2018-02-13T07:33:10.617Z,0.27
2018-02-13T07:35:38.169Z,0.37
2018-02-13T07:38:05.692Z,0.23
2018-02-13T07:40:33.264Z,0.26
2018-02-13T07:43:00.792Z,0.73
2018-02-13T07:45:28.307Z,0.93
2018-02-13T07:47:55.885Z,0.93
2018-02-13T07:50:23.398Z,0.78
2018-02-13T07:52:50.955Z,1.21
2018-02-13T07:55:18.478Z,1.30
2018-02-13T07:57:45.986Z,0.99
2018-02-13T08:00:13.526Z,1.29
2018-02-13T08:02:41.037Z,1.32
2018-02-13T08:05:08.926Z,1.32
2018-02-13T08:07:36.433Z,1.33
2018-02-13T08:10:03.965Z,1.47
2018-02-13T08:12:31.505Z,1.78
2018-02-13T08:14:59.141Z,1.77
2018-02-13T08:17:26.721Z,1.79
2018-02-13T08:19:54.377Z,2.07
2018-02-13T08:22:21.893Z,2.30
2018-02-13T08:24:49.442Z,2.21
2018-02-13T08:27:16.948Z,2.33
2018-02-13T08:29:44.618Z,2.52
2018-02-13T08:32:12.137Z,2.56
2018-02-13T08:34:39.650Z,2.67
2018-02-13T08:37:07.182Z,2.80
2018-02-13T08:39:34.694Z,2.92
2018-02-13T08:42:02.337Z,2.87
2018-02-13T08:44:29.849Z,3.12
2018-02-13T08:46:57.370Z,3.05
2018-02-13T08:49:24.962Z,3.37
2018-02-13T08:51:52.490Z,3.42
2018-02-13T08:54:20.036Z,3.46
2018-02-13T08:56:47.550Z,3.64
2018-02-13T08:59:15.070Z,3.96
2018-02-13T09:01:42.624Z,3.72
2018-02-13T09:04:10.130Z,3.90
2018-02-13T09:06:37.813Z,4.10
2018-02-13T09:09:05.346Z,4.35
2018-02-13T09:11:32.886Z,4.57
2018-02-13T09:14:00.430Z,4.84
2018-02-13T09:16:27.941Z,4.88
2018-02-13T09:18:55.702Z,4.98
2018-02-13T09:21:23.242Z,5.01
2018-02-13T09:23:50.749Z,5.06
2018-02-13T09:26:18.287Z,4.86
2018-02-13T09:28:45.797Z,4.99
2018-02-13T09:31:13.373Z,5.01
2018-02-13T09:33:40.886Z,4.69
2018-02-13T09:36:08.397Z,5.41
2018-02-13T09:38:35.993Z,6.22
2018-02-13T09:41:03.501Z,9.74
2018-02-13T09:43:31.062Z,13.13
2018-02-13T09:45:58.573Z,14.22
2018-02-13T09:48:26.742Z,16.73
2018-02-13T09:50:54.404Z,18.02
2018-02-13T09:53:21.928Z,18.21
2018-02-13T09:55:49.606Z,19.94
2018-02-13T09:58:17.123Z,21.56
2018-02-13T10:00:44.640Z,20.56
2018-02-13T10:03:12.188Z,21.16
2018-02-13T10:05:39.702Z,21.94
2018-02-13T10:08:07.727Z,21.60
2018-02-13T10:10:35.249Z,21.79
2018-02-13T10:13:02.774Z,22.61
2018-02-13T10:15:30.549Z,21.72
2018-02-13T10:17:58.476Z,20.85
2018-02-13T10:20:26.244Z,21.31
2018-02-13T10:22:53.799Z,21.48
2018-02-13T10:25:21.359Z,23.00
2018-02-13T10:27:48.897Z,22.85
2018-02-13T10:30:16.410Z,23.06
2018-02-13T10:32:44.893Z,22.59
2018-02-13T10:35:12.383Z,22.84
2018-02-13T10:37:39.925Z,20.42
2018-02-13T10:40:07.481Z,20.28
2018-02-13T10:42:35.069Z,18.64
2018-02-13T10:45:02.728Z,18.34
2018-02-13T10:47:30.418Z,20.56
2018-02-13T10:49:57.976Z,19.36
2018-02-13T10:52:25.965Z,20.94
2018-02-13T10:54:53.824Z,19.45
2018-02-13T10:57:21.553Z,18.92
2018-02-13T10:59:49.377Z,19.08
2018-02-13T11:02:22.902Z,18.33
2018-02-13T11:04:50.848Z,19.75
2018-02-13T11:07:18.890Z,19.86
2018-02-13T11:09:46.547Z,21.05
2018-02-13T11:12:14.114Z,22.78
2018-02-13T11:14:41.736Z,24.75
2018-02-13T11:17:09.333Z,24.75
2018-02-13T11:19:37.085Z,25.82
2018-02-13T11:22:04.706Z,24.13
2018-02-13T11:24:32.509Z,26.26
2018-02-13T11:27:00.478Z,24.49
2018-02-13T11:29:28.285Z,24.03
2018-02-13T11:31:56.831Z,24.90
2018-02-13T11:34:24.482Z,20.47
2018-02-13T11:36:52.149Z,19.53
2018-02-13T11:39:19.904Z,19.99
2018-02-13T11:41:47.422Z,19.68
2018-02-13T11:44:14.940Z,21.88
2018-02-13T11:46:42.497Z,21.15
2018-02-13T11:49:10.011Z,22.44
2018-02-13T11:51:37.814Z,23.78
2018-02-13T11:54:05.577Z,21.30
2018-02-13T11:56:33.180Z,19.96
2018-02-13T11:59:00.709Z,18.56
2018-02-13T12:01:28.227Z,19.68
2018-02-13T12:03:55.777Z,19.97
2018-02-13T12:06:23.390Z,17.76
2018-02-13T12:08:51.112Z,17.71
2018-02-13T12:11:18.673Z,19.96
2018-02-13T12:13:46.228Z,19.56
2018-02-13T12:16:14.217Z,18.64
2018-02-13T12:18:41.786Z,20.70
2018-02-13T12:21:09.649Z,20.83
2018-02-13T12:23:37.224Z,19.51
2018-02-13T12:26:04.972Z,19.86
2018-02-13T12:28:33.453Z,19.84
2018-02-13T12:31:01.218Z,21.78
2018-02-13T12:33:28.880Z,19.87
2018-02-13T12:35:56.576Z,20.46
2018-02-13T12:38:24.509Z,19.05
2018-02-13T12:40:52.682Z,20.64
2018-02-13T12:43:20.408Z,17.66
2018-02-13T12:45:48.211Z,11.29
2018-02-13T12:48:15.974Z,9.20
2018-02-13T12:50:43.740Z,8.71
2018-02-13T12:53:11.450Z,8.44
2018-02-13T12:55:39.281Z,8.05
2018-02-13T12:58:06.875Z,7.48
2018-02-13T13:00:34.411Z,6.96
2018-02-13T13:03:02.188Z,6.70
2018-02-13T13:05:29.909Z,6.51
2018-02-13T13:07:57.537Z,6.86
2018-02-13T13:10:25.117Z,7.39
2018-02-13T13:12:52.694Z,7.46
2018-02-13T13:15:20.197Z,7.26
2018-02-13T13:17:47.998Z,6.88
2018-02-13T13:20:15.589Z,6.88
2018-02-13T13:22:43.098Z,6.95
2018-02-13T13:25:10.671Z,6.87
2018-02-13T13:27:38.330Z,6.51
2018-02-13T13:30:05.878Z,6.53
2018-02-13T13:32:33.409Z,6.72
2018-02-13T13:35:00.931Z,6.93
2018-02-13T13:37:28.473Z,6.99
2018-02-13T13:39:55.990Z,6.28
2018-02-13T13:42:23.901Z,6.16
2018-02-13T13:44:51.414Z,6.86
2018-02-13T13:47:18.942Z,6.73
2018-02-13T13:49:46.665Z,6.72
2018-02-13T13:52:14.198Z,6.68
2018-02-13T13:54:41.758Z,7.07
2018-02-13T13:57:09.270Z,6.34
2018-02-13T13:59:36.784Z,6.52
2018-02-13T14:02:04.392Z,6.89
2018-02-13T14:04:32.010Z,6.62
2018-02-13T14:07:00.702Z,6.89
2018-02-13T14:09:28.375Z,6.38
2018-02-13T14:11:56.082Z,6.36
2018-02-13T14:14:23.622Z,6.19
2018-02-13T14:16:51.977Z,6.24
2018-02-13T14:19:19.642Z,6.53
2018-02-13T14:21:47.221Z,6.37
2018-02-13T14:24:14.787Z,6.77
2018-02-13T14:26:42.440Z,6.65
2018-02-13T14:29:09.979Z,6.80
2018-02-13T14:31:37.538Z,6.68
2018-02-13T14:34:05.046Z,7.81
2018-02-13T14:36:32.770Z,7.56
2018-02-13T14:39:00.277Z,7.26
2018-02-13T14:41:27.803Z,6.95
2018-02-13T14:43:55.378Z,7.36
2018-02-13T14:46:23.017Z,7.49
2018-02-13T14:48:50.984Z,7.51
2018-02-13T14:51:18.702Z,7.02
2018-02-13T14:53:46.821Z,6.69
2018-02-13T14:56:14.449Z,6.52
2018-02-13T14:58:42.134Z,6.12
2018-02-13T15:01:09.722Z,6.37
2018-02-13T15:03:37.291Z,5.89
2018-02-13T15:06:04.924Z,5.88
2018-02-13T15:08:32.565Z,6.35
2018-02-13T15:11:00.166Z,6.09
2018-02-13T15:13:27.889Z,6.16
2018-02-13T15:15:55.898Z,6.09
2018-02-13T15:18:30.362Z,5.78
2018-02-13T15:20:57.958Z,5.54
2018-02-13T15:23:25.492Z,5.86
2018-02-13T15:25:53.282Z,6.11
2018-02-13T15:28:20.945Z,5.68
2018-02-13T15:30:49.193Z,5.77
2018-02-13T15:33:16.765Z,5.88
2018-02-13T15:35:44.425Z,5.72
2018-02-13T15:38:12.103Z,5.58
2018-02-13T15:40:39.907Z,5.52
2018-02-13T15:43:07.637Z,5.61
2018-02-13T15:45:35.294Z,5.52
2018-02-13T15:48:02.852Z,5.34
2018-02-13T15:50:30.617Z,5.32
2018-02-13T15:52:58.294Z,5.22
2018-02-13T15:55:26.349Z,5.35
2018-02-13T15:57:53.897Z,5.21
2018-02-13T16:00:21.479Z,5.36
2018-02-13T16:02:49.098Z,5.33
2018-02-13T16:05:16.894Z,5.41
2018-02-13T16:07:44.658Z,5.32
2018-02-13T16:10:12.728Z,5.37
2018-02-13T16:12:40.499Z,5.24
2018-02-13T16:15:08.263Z,5.22
2018-02-13T16:17:35.932Z,4.88
2018-02-13T16:20:04.821Z,4.70
2018-02-13T16:22:32.690Z,4.74
2018-02-13T16:25:00.667Z,4.86
2018-02-13T16:27:28.311Z,4.92
2018-02-13T16:29:56.070Z,4.77
2018-02-13T16:32:23.834Z,4.57
2018-02-13T16:34:51.952Z,4.66
2018-02-13T16:37:19.822Z,4.14
2018-02-13T16:39:48.449Z,4.23
2018-02-13T16:42:16.604Z,4.18
2018-02-13T16:44:45.424Z,4.24
2018-02-13T16:47:13.679Z,4.22
2018-02-13T16:49:42.378Z,4.37
2018-02-13T16:52:10.454Z,4.37
2018-02-13T16:54:38.648Z,4.19
2018-02-13T16:57:06.919Z,4.00
2018-02-13T16:59:35.169Z,4.15
2018-02-13T17:02:03.322Z,4.11
2018-02-13T17:04:31.605Z,3.93
2018-02-13T17:06:59.510Z,4.10
2018-02-13T17:09:27.822Z,3.72
2018-02-13T17:11:56.884Z,3.63
2018-02-13T17:14:25.362Z,3.85
2018-02-13T17:16:53.333Z,3.77
2018-02-13T17:19:21.182Z,3.73
2018-02-13T17:21:50.952Z,3.74
2018-02-13T17:24:20.288Z,3.61
2018-02-13T17:26:49.480Z,3.65
2018-02-13T17:29:17.871Z,3.72
2018-02-13T17:31:46.169Z,3.59
2018-02-13T17:34:14.013Z,3.44
2018-02-13T17:36:41.760Z,3.22
2018-02-13T17:39:09.847Z,3.33
2018-02-13T17:41:37.937Z,3.33
2018-02-13T17:44:05.991Z,3.35
2018-02-13T17:46:33.669Z,3.21
2018-02-13T17:49:01.914Z,3.13
2018-02-13T17:51:30.091Z,3.15
2018-02-13T17:53:58.176Z,2.99
2018-02-13T17:56:26.245Z,2.92
2018-02-13T17:58:54.433Z,2.92
2018-02-13T18:01:23.330Z,3.01
2018-02-13T18:03:51.382Z,2.91
2018-02-13T18:06:19.353Z,2.84
2018-02-13T18:08:47.603Z,2.83
2018-02-13T18:11:15.947Z,2.73
2018-02-13T18:13:46.114Z,2.71
2018-02-13T18:16:14.536Z,2.76
2018-02-13T18:18:42.663Z,2.91
2018-02-13T18:21:10.454Z,2.81
2018-02-13T18:23:39.580Z,2.72
2018-02-13T18:26:07.921Z,2.72
2018-02-13T18:28:36.561Z,2.81
2018-02-13T18:31:04.466Z,2.73
2018-02-13T18:33:32.865Z,2.85
2018-02-13T18:36:01.417Z,2.75
2018-02-13T18:38:29.614Z,2.58
2018-02-13T18:40:58.157Z,2.69
2018-02-13T18:43:26.348Z,2.64
2018-02-13T18:45:54.732Z,2.70
2018-02-13T18:48:23.177Z,2.67
2018-02-13T18:50:51.130Z,2.65
2018-02-13T18:53:19.227Z,2.64
2018-02-13T18:55:47.089Z,2.60
2018-02-13T18:58:14.959Z,2.68
2018-02-13T19:00:44.562Z,2.45
2018-02-13T19:03:13.015Z,2.50
2018-02-13T19:05:42.484Z,2.48
2018-02-13T19:08:10.870Z,2.43
2018-02-13T19:10:38.827Z,2.51
2018-02-13T19:13:06.980Z,2.65
2018-02-13T19:15:35.345Z,2.64
2018-02-13T19:18:03.682Z,2.43
2018-02-13T19:20:31.728Z,2.46
2018-02-13T19:22:59.593Z,2.39
2018-02-13T19:25:27.460Z,2.38
2018-02-13T19:27:55.736Z,2.41
2018-02-13T19:30:23.910Z,2.39
2018-02-13T19:32:51.881Z,2.44
2018-02-13T19:35:19.848Z,2.42
2018-02-13T19:37:47.948Z,2.38
2018-02-13T19:40:15.888Z,2.37
2018-02-13T19:42:43.986Z,2.30
2018-02-13T19:45:12.054Z,2.29
2018-02-13T19:47:40.912Z,2.19
2018-02-13T19:50:09.197Z,2.08
2018-02-13T19:52:37.168Z,1.93
2018-02-13T19:55:05.441Z,1.95
2018-02-13T19:57:34.043Z,1.94
2018-02-13T20:00:02.374Z,1.91
2018-02-13T20:02:30.885Z,1.95
2018-02-13T20:04:59.262Z,1.98
2018-02-13T20:07:27.861Z,1.89
2018-02-13T20:09:56.039Z,1.83
2018-02-13T20:12:24.313Z,1.76
2018-02-13T20:14:53.200Z,1.71
2018-02-13T20:17:21.986Z,1.79
2018-02-13T20:19:50.716Z,1.67
2018-02-13T20:22:19.032Z,1.82
2018-02-13T20:24:46.909Z,1.84
2018-02-13T20:27:15.656Z,1.85
2018-02-13T20:29:43.560Z,1.96
2018-02-13T20:32:13.611Z,1.91
2018-02-13T20:34:44.426Z,1.82
2018-02-13T20:37:13.111Z,1.70
2018-02-13T20:39:41.810Z,1.61
2018-02-13T20:42:10.039Z,1.54
2018-02-13T20:44:38.464Z,1.52
2018-02-13T20:47:06.846Z,1.51
2018-02-13T20:49:35.631Z,1.56
2018-02-13T20:52:03.980Z,1.68
2018-02-13T20:54:32.465Z,1.66
2018-02-13T20:57:00.975Z,1.60
2018-02-13T20:59:29.451Z,1.55
2018-02-13T21:01:58.207Z,1.53
2018-02-13T21:04:26.591Z,1.47
2018-02-13T21:06:55.082Z,1.54
2018-02-13T21:09:24.064Z,1.47
2018-02-13T21:11:52.550Z,1.46
2018-02-13T21:14:21.496Z,1.34
2018-02-13T21:16:49.913Z,1.27
2018-02-13T21:19:18.526Z,1.26
2018-02-13T21:21:47.687Z,1.20
2018-02-13T21:24:15.755Z,1.15
2018-02-13T21:26:45.053Z,1.08
2018-02-13T21:29:13.341Z,1.04
2018-02-13T21:31:43.616Z,1.01
2018-02-13T21:34:12.043Z,1.00
2018-02-13T21:36:40.545Z,0.96
2018-02-13T21:39:09.031Z,0.95
2018-02-13T21:41:38.158Z,0.94
2018-02-13T21:44:07.658Z,0.95
2018-02-13T21:46:36.010Z,0.90
2018-02-13T21:49:04.353Z,0.85
2018-02-13T21:51:32.601Z,0.82
2018-02-13T21:54:03.507Z,0.77
2018-02-13T21:56:31.978Z,0.80
2018-02-13T21:59:00.345Z,0.77
2018-02-13T22:01:28.107Z,0.75
2018-02-13T22:03:57.524Z,0.73
2018-02-13T22:06:26.705Z,0.69
2018-02-13T22:08:55.751Z,0.68
2018-02-13T22:11:23.667Z,0.66
2018-02-13T22:13:51.509Z,0.64
2018-02-13T22:16:19.374Z,0.56
2018-02-13T22:18:47.267Z,0.61
2018-02-13T22:21:15.607Z,0.57
2018-02-13T22:23:43.475Z,0.54
2018-02-13T22:26:11.277Z,0.53
2018-02-13T22:28:39.209Z,0.51
2018-02-13T22:31:07.111Z,0.46
2018-02-13T22:33:35.594Z,0.43
2018-02-13T22:36:03.458Z,0.36
2018-02-13T22:38:31.635Z,0.34
2018-02-13T22:40:59.601Z,0.28
2018-02-13T22:43:27.468Z,0.30
2018-02-13T22:45:55.432Z,0.27
2018-02-13T22:48:23.201Z,0.22
2018-02-13T22:50:51.887Z,0.19
2018-02-13T22:53:20.676Z,0.15
2018-02-13T22:55:48.345Z,0.13
2018-02-13T22:58:16.306Z,0.08
2018-02-13T23:00:44.074Z,0.12
2018-02-13T23:03:11.936Z,0.13
2018-02-13T23:05:40.008Z,0.20
2018-02-13T23:08:08.078Z,0.26
2018-02-13T23:10:36.057Z,0.33
2018-02-13T23:13:03.902Z,0.40
2018-02-13T23:15:31.782Z,0.57
2018-02-13T23:17:59.812Z,0.60
2018-02-13T23:20:27.484Z,0.62
2018-02-13T23:22:55.482Z,0.53
2018-02-13T23:25:23.246Z,0.42
2018-02-13T23:27:50.954Z,0.31
2018-02-13T23:30:19.769Z,0.22
2018-02-13T23:32:47.321Z,0.13
2018-02-13T23:35:15.063Z,0.07
2018-02-13T23:37:42.661Z,0.02
2018-02-13T23:40:10.342Z,-0.02
2018-02-13T23:42:38.005Z,-0.03
2018-02-13T23:45:05.771Z,-0.03
2018-02-13T23:47:33.944Z,-0.04
2018-02-13T23:50:01.528Z,-0.11
2018-02-13T23:52:29.366Z,-0.12
2018-02-13T23:54:57.035Z,-0.17
2018-02-13T23:57:24.623Z,-0.19
2018-02-13T23:59:52.302Z,-0.22
